createdAt,value
2022-09-06T00:00:03.844Z,7.30
2022-09-06T00:00:13.972Z,7.60
2022-09-06T00:00:23.853Z,7.40
2022-09-06T00:00:33.892Z,7.30
2022-09-06T00:00:43.958Z,6.70
2022-09-06T00:00:53.867Z,7.00
2022-09-06T00:01:03.901Z,6.80
2022-09-06T00:01:13.872Z,7.00
2022-09-06T00:01:23.907Z,6.90
2022-09-06T00:01:33.879Z,6.90
2022-09-06T00:01:43.884Z,6.90
2022-09-06T00:01:53.942Z,7.00
2022-09-06T00:02:03.850Z,7.10
2022-09-06T00:02:14.017Z,7.00
2022-09-06T00:02:23.971Z,6.90
2022-09-06T00:02:34.019Z,7.10
2022-09-06T00:02:44.039Z,7.30
2022-09-06T00:02:54.098Z,7.50
2022-09-06T00:03:04.061Z,7.20
2022-09-06T00:03:13.940Z,7.20
2022-09-06T00:03:23.849Z,7.00
2022-09-06T00:03:33.952Z,6.90
2022-09-06T00:03:44.034Z,6.80
2022-09-06T00:03:54.007Z,6.20
2022-09-06T00:04:03.955Z,6.10
2022-09-06T00:04:15.509Z,6.30
2022-09-06T00:04:23.920Z,6.70
2022-09-06T00:04:33.942Z,7.10
2022-09-06T00:04:43.910Z,7.10
2022-09-06T00:04:53.926Z,6.90
2022-09-06T00:05:03.923Z,6.60
2022-09-06T00:05:13.847Z,6.10
2022-09-06T00:05:23.886Z,6.40
2022-09-06T00:05:33.962Z,6.40
2022-09-06T00:05:43.866Z,7.00
2022-09-06T00:05:53.884Z,6.80
2022-09-06T00:06:03.949Z,7.10
2022-09-06T00:06:13.981Z,7.00
2022-09-06T00:06:23.947Z,7.00
2022-09-06T00:06:33.871Z,6.90
2022-09-06T00:06:43.874Z,6.70
2022-09-06T00:06:53.937Z,6.90
2022-09-06T00:07:03.964Z,6.60
2022-09-06T00:07:13.972Z,6.60
2022-09-06T00:07:23.915Z,6.10
2022-09-06T00:07:33.867Z,6.40
2022-09-06T00:07:43.924Z,6.60
2022-09-06T00:07:53.974Z,7.10
2022-09-06T00:08:03.921Z,7.20
2022-09-06T00:08:13.951Z,6.90
2022-09-06T00:08:23.998Z,6.90
2022-09-06T00:08:33.969Z,6.50
2022-09-06T00:08:45.262Z,6.90
2022-09-06T00:08:53.941Z,6.80
2022-09-06T00:09:03.942Z,6.40
2022-09-06T00:09:13.977Z,6.20
2022-09-06T00:09:23.968Z,6.10
2022-09-06T00:09:33.882Z,6.40
2022-09-06T00:09:43.916Z,6.00
2022-09-06T00:09:53.946Z,5.70
2022-09-06T00:10:03.959Z,6.10
2022-09-06T00:10:13.882Z,6.20
2022-09-06T00:10:23.911Z,6.70
2022-09-06T00:10:33.873Z,6.50
2022-09-06T00:10:43.954Z,6.70
2022-09-06T00:10:56.789Z,6.70
2022-09-06T00:11:03.921Z,6.70
2022-09-06T00:11:13.858Z,6.80
2022-09-06T00:11:23.900Z,6.60
2022-09-06T00:11:33.908Z,6.30
2022-09-06T00:11:43.888Z,6.20
2022-09-06T00:11:53.882Z,6.00
2022-09-06T00:12:03.906Z,6.10
2022-09-06T00:12:13.910Z,6.20
2022-09-06T00:12:23.911Z,6.50
2022-09-06T00:12:33.865Z,6.40
2022-09-06T00:12:43.894Z,6.60
2022-09-06T00:12:53.949Z,6.60
2022-09-06T00:13:03.977Z,7.10
2022-09-06T00:13:13.953Z,6.60
2022-09-06T00:13:23.871Z,6.80
2022-09-06T00:13:33.879Z,6.90
2022-09-06T00:13:43.952Z,7.30
2022-09-06T00:13:53.959Z,7.20
2022-09-06T00:14:03.975Z,7.00
2022-09-06T00:14:13.958Z,6.60
2022-09-06T00:14:23.889Z,6.50
2022-09-06T00:14:33.887Z,6.60
2022-09-06T00:14:43.913Z,6.80
2022-09-06T00:14:53.955Z,6.40
2022-09-06T00:15:03.945Z,5.80
2022-09-06T00:15:13.872Z,5.70
2022-09-06T00:15:23.878Z,6.20
2022-09-06T00:15:33.952Z,6.80
2022-09-06T00:15:44.026Z,6.90
2022-09-06T00:15:53.935Z,6.60
2022-09-06T00:16:03.990Z,6.50
2022-09-06T00:16:13.994Z,6.90
2022-09-06T00:16:28.419Z,7.10
2022-09-06T00:16:33.869Z,7.40
2022-09-06T00:16:43.866Z,7.10
2022-09-06T00:16:53.867Z,6.90
2022-09-06T00:17:03.923Z,6.30
2022-09-06T00:17:13.849Z,6.20
2022-09-06T00:17:23.934Z,6.60
2022-09-06T00:17:33.937Z,7.10
2022-09-06T00:17:43.874Z,6.90
2022-09-06T00:17:53.849Z,6.60
2022-09-06T00:18:03.934Z,6.50
2022-09-06T00:18:13.847Z,6.80
2022-09-06T00:18:23.983Z,6.60
2022-09-06T00:18:33.897Z,6.50
2022-09-06T00:18:43.850Z,6.80
2022-09-06T00:18:55.935Z,7.00
2022-09-06T00:19:03.910Z,7.20
2022-09-06T00:19:13.855Z,6.80
2022-09-06T00:19:23.884Z,7.00
2022-09-06T00:19:33.918Z,6.90
2022-09-06T00:19:43.899Z,7.00
2022-09-06T00:19:53.924Z,6.90
2022-09-06T00:20:03.874Z,7.30
2022-09-06T00:20:13.844Z,7.30
2022-09-06T00:20:23.871Z,7.40
2022-09-06T00:20:33.970Z,6.80
2022-09-06T00:20:43.918Z,6.50
2022-09-06T00:20:53.848Z,6.40
2022-09-06T00:21:03.935Z,6.90
2022-09-06T00:21:13.895Z,7.00
2022-09-06T00:21:23.961Z,7.00
2022-09-06T00:21:33.913Z,6.50
2022-09-06T00:21:43.911Z,6.30
2022-09-06T00:21:53.907Z,6.30
2022-09-06T00:22:03.952Z,6.20
2022-09-06T00:22:13.879Z,6.80
2022-09-06T00:22:23.971Z,6.80
2022-09-06T00:22:33.855Z,7.00
2022-09-06T00:22:43.932Z,6.70
2022-09-06T00:22:53.952Z,6.50
2022-09-06T00:23:03.860Z,7.00
2022-09-06T00:23:13.870Z,6.90
2022-09-06T00:23:23.903Z,7.20
2022-09-06T00:23:33.959Z,6.60
2022-09-06T00:23:43.894Z,6.80
2022-09-06T00:23:53.935Z,7.00
2022-09-06T00:24:03.950Z,7.50
2022-09-06T00:24:13.884Z,7.70
2022-09-06T00:24:23.920Z,7.30
2022-09-06T00:24:33.964Z,7.00
2022-09-06T00:24:43.922Z,7.10
2022-09-06T00:24:53.936Z,7.40
2022-09-06T00:25:03.957Z,7.50
2022-09-06T00:25:13.947Z,7.10
2022-09-06T00:25:23.967Z,6.70
2022-09-06T00:25:33.979Z,6.60
2022-09-06T00:25:43.872Z,6.40
2022-09-06T00:25:53.930Z,6.60
2022-09-06T00:26:03.913Z,6.90
2022-09-06T00:26:13.924Z,7.30
2022-09-06T00:26:23.974Z,7.10
2022-09-06T00:26:33.963Z,6.80
2022-09-06T00:26:43.978Z,6.90
2022-09-06T00:26:53.904Z,6.90
2022-09-06T00:27:03.871Z,7.20
2022-09-06T00:27:13.886Z,6.90
2022-09-06T00:27:23.888Z,6.80
2022-09-06T00:27:33.880Z,6.40
2022-09-06T00:27:43.850Z,6.30
2022-09-06T00:27:53.857Z,6.80
2022-09-06T00:28:03.910Z,6.70
2022-09-06T00:28:13.956Z,6.80
2022-09-06T00:28:23.941Z,6.80
2022-09-06T00:28:37.395Z,7.10
2022-09-06T00:28:43.848Z,7.10
2022-09-06T00:28:53.960Z,6.60
2022-09-06T00:29:03.856Z,6.50
2022-09-06T00:29:13.897Z,6.90
2022-09-06T00:29:23.915Z,7.50
2022-09-06T00:29:33.930Z,7.20
2022-09-06T00:29:46.310Z,6.90
2022-09-06T00:29:53.969Z,6.60
2022-09-06T00:30:03.916Z,6.70
2022-09-06T00:30:13.980Z,6.20
2022-09-06T00:30:23.913Z,6.40
2022-09-06T00:30:33.878Z,6.40
2022-09-06T00:30:43.917Z,6.80
2022-09-06T00:30:53.993Z,6.70
2022-09-06T00:31:04.035Z,6.90
2022-09-06T00:31:13.932Z,6.90
2022-09-06T00:31:24.150Z,7.00
2022-09-06T00:31:33.982Z,6.50
2022-09-06T00:31:43.864Z,6.70
2022-09-06T00:31:53.929Z,6.30
2022-09-06T00:32:03.960Z,6.80
2022-09-06T00:32:13.921Z,6.80
2022-09-06T00:32:23.876Z,7.30
2022-09-06T00:32:33.875Z,7.30
2022-09-06T00:32:43.856Z,7.20
2022-09-06T00:32:53.889Z,7.10
2022-09-06T00:33:03.946Z,7.20
2022-09-06T00:33:13.934Z,7.20
2022-09-06T00:33:23.880Z,7.10
2022-09-06T00:33:33.924Z,7.10
2022-09-06T00:33:43.871Z,6.90
2022-09-06T00:33:53.851Z,6.70
2022-09-06T00:34:03.849Z,6.80
2022-09-06T00:34:13.907Z,6.70
2022-09-06T00:34:23.939Z,6.70
2022-09-06T00:34:33.856Z,6.20
2022-09-06T00:34:43.871Z,6.20
2022-09-06T00:34:53.922Z,6.20
2022-09-06T00:35:03.973Z,6.10
2022-09-06T00:35:13.910Z,6.10
2022-09-06T00:35:23.944Z,6.10
2022-09-06T00:35:33.873Z,6.60
2022-09-06T00:35:43.848Z,6.50
2022-09-06T00:35:53.866Z,6.80
2022-09-06T00:36:03.872Z,6.70
2022-09-06T00:36:13.853Z,6.70
2022-09-06T00:36:23.854Z,6.90
2022-09-06T00:36:33.866Z,7.00
2022-09-06T00:36:44.649Z,7.30
2022-09-06T00:36:53.957Z,6.90
2022-09-06T00:37:03.912Z,6.90
2022-09-06T00:37:13.891Z,6.60
2022-09-06T00:37:23.906Z,6.70
2022-09-06T00:37:33.857Z,6.50
2022-09-06T00:37:43.876Z,6.80
2022-09-06T00:37:53.876Z,6.90
2022-09-06T00:38:03.913Z,7.20
2022-09-06T00:38:13.902Z,7.10
2022-09-06T00:38:23.907Z,7.40
2022-09-06T00:38:33.925Z,7.20
2022-09-06T00:38:43.903Z,7.00
2022-09-06T00:38:53.958Z,6.80
2022-09-06T00:39:03.850Z,7.10
2022-09-06T00:39:13.976Z,7.20
2022-09-06T00:39:23.987Z,7.10
2022-09-06T00:39:33.935Z,7.00
2022-09-06T00:39:44.023Z,6.70
2022-09-06T00:39:53.897Z,6.80
2022-09-06T00:40:03.902Z,6.60
2022-09-06T00:40:13.889Z,6.50
2022-09-06T00:40:23.911Z,6.80
2022-09-06T00:40:33.933Z,7.20
2022-09-06T00:40:43.966Z,7.40
2022-09-06T00:40:53.943Z,7.00
2022-09-06T00:41:03.951Z,7.20
2022-09-06T00:41:13.901Z,7.10
2022-09-06T00:41:23.945Z,7.20
2022-09-06T00:41:33.976Z,7.10
2022-09-06T00:41:43.960Z,6.80
2022-09-06T00:41:53.878Z,6.90
2022-09-06T00:42:03.867Z,6.60
2022-09-06T00:42:13.971Z,6.90
2022-09-06T00:42:23.921Z,6.60
2022-09-06T00:42:33.942Z,6.60
2022-09-06T00:42:43.892Z,6.10
2022-09-06T00:42:53.935Z,6.40
2022-09-06T00:43:03.846Z,6.40
2022-09-06T00:43:13.962Z,6.60
2022-09-06T00:43:23.873Z,6.80
2022-09-06T00:43:33.890Z,7.10
2022-09-06T00:43:43.978Z,7.00
2022-09-06T00:43:53.924Z,6.80
2022-09-06T00:44:03.913Z,6.80
2022-09-06T00:44:13.975Z,6.70
2022-09-06T00:44:23.972Z,6.70
2022-09-06T00:44:33.900Z,6.50
2022-09-06T00:44:43.970Z,6.30
2022-09-06T00:44:53.980Z,6.30
2022-09-06T00:45:03.889Z,6.40
2022-09-06T00:45:13.916Z,6.70
2022-09-06T00:45:23.922Z,6.70
2022-09-06T00:45:33.882Z,7.00
2022-09-06T00:45:43.882Z,7.00
2022-09-06T00:45:53.993Z,7.00
2022-09-06T00:46:03.985Z,6.60
2022-09-06T00:46:14.073Z,6.70
2022-09-06T00:46:23.981Z,6.40
2022-09-06T00:46:34.039Z,6.50
2022-09-06T00:46:44.013Z,6.40
2022-09-06T00:46:53.951Z,6.50
2022-09-06T00:47:03.866Z,6.70
2022-09-06T00:47:13.959Z,6.80
2022-09-06T00:47:23.946Z,7.00
2022-09-06T00:47:33.873Z,6.80
2022-09-06T00:47:43.957Z,6.70
2022-09-06T00:47:53.853Z,6.50
2022-09-06T00:48:03.938Z,6.00
2022-09-06T00:48:13.958Z,6.20
2022-09-06T00:48:24.001Z,6.20
2022-09-06T00:48:33.875Z,6.60
2022-09-06T00:48:43.868Z,6.10
2022-09-06T00:48:53.967Z,6.30
2022-09-06T00:49:03.864Z,6.70
2022-09-06T00:49:13.906Z,7.20
2022-09-06T00:49:23.940Z,7.20
2022-09-06T00:49:33.934Z,7.20
2022-09-06T00:49:43.892Z,6.70
2022-09-06T00:49:53.927Z,6.80
2022-09-06T00:50:03.858Z,6.70
2022-09-06T00:50:13.947Z,7.40
2022-09-06T00:50:23.965Z,7.30
2022-09-06T00:50:33.925Z,7.30
2022-09-06T00:50:43.965Z,6.60
2022-09-06T00:50:53.893Z,6.80
2022-09-06T00:51:03.845Z,6.50
2022-09-06T00:51:13.874Z,6.60
2022-09-06T00:51:23.974Z,6.40
2022-09-06T00:51:33.940Z,6.70
2022-09-06T00:51:43.888Z,7.20
2022-09-06T00:51:53.944Z,7.30
2022-09-06T00:52:03.877Z,7.30
2022-09-06T00:52:13.921Z,6.80
2022-09-06T00:52:23.873Z,6.80
2022-09-06T00:52:33.954Z,6.70
2022-09-06T00:52:43.857Z,7.00
2022-09-06T00:52:53.915Z,6.90
2022-09-06T00:53:03.890Z,7.10
2022-09-06T00:53:13.968Z,6.90
2022-09-06T00:53:23.985Z,7.20
2022-09-06T00:53:33.925Z,7.10
2022-09-06T00:53:43.868Z,7.20
2022-09-06T00:53:53.903Z,6.50
2022-09-06T00:54:03.926Z,6.50
2022-09-06T00:54:13.897Z,7.00
2022-09-06T00:54:23.885Z,7.00
2022-09-06T00:54:33.956Z,7.20
2022-09-06T00:54:43.932Z,6.60
2022-09-06T00:54:53.973Z,7.00
2022-09-06T00:55:03.864Z,6.50
2022-09-06T00:55:13.888Z,6.70
2022-09-06T00:55:23.874Z,6.60
2022-09-06T00:55:33.876Z,6.80
2022-09-06T00:55:43.914Z,6.70
2022-09-06T00:55:53.952Z,6.70
2022-09-06T00:56:03.950Z,7.10
2022-09-06T00:56:13.906Z,7.20
2022-09-06T00:56:23.925Z,7.10
2022-09-06T00:56:33.957Z,6.80
2022-09-06T00:56:43.915Z,6.60
2022-09-06T00:56:53.905Z,6.80
2022-09-06T00:57:03.893Z,6.80
2022-09-06T00:57:13.916Z,6.90
2022-09-06T00:57:23.860Z,6.80
2022-09-06T00:57:33.924Z,7.10
2022-09-06T00:57:43.874Z,6.70
2022-09-06T00:57:53.941Z,7.10
2022-09-06T00:58:03.909Z,6.80
2022-09-06T00:58:13.948Z,7.50
2022-09-06T00:58:23.955Z,7.10
2022-09-06T00:58:33.866Z,7.00
2022-09-06T00:58:43.964Z,6.70
2022-09-06T00:58:53.919Z,6.60
2022-09-06T00:59:03.906Z,6.60
2022-09-06T00:59:13.922Z,6.60
2022-09-06T00:59:23.946Z,7.00
2022-09-06T00:59:33.898Z,7.10
2022-09-06T00:59:43.887Z,7.10
2022-09-06T00:59:53.956Z,6.60
2022-09-06T01:00:03.882Z,6.50
2022-09-06T01:00:13.901Z,6.40
2022-09-06T01:00:23.937Z,6.70
2022-09-06T01:00:33.931Z,6.70
2022-09-06T01:00:43.979Z,6.90
2022-09-06T01:00:53.880Z,6.70
2022-09-06T01:01:03.928Z,6.80
2022-09-06T01:01:14.050Z,7.30
2022-09-06T01:01:23.986Z,7.50
2022-09-06T01:01:33.944Z,7.50
2022-09-06T01:01:44.110Z,6.90
2022-09-06T01:01:54.057Z,6.80
2022-09-06T01:02:04.170Z,7.20
2022-09-06T01:02:14.157Z,7.40
2022-09-06T01:02:24.126Z,7.20
2022-09-06T01:02:34.059Z,7.20
2022-09-06T01:02:44.007Z,6.90
2022-09-06T01:02:54.011Z,7.50
2022-09-06T01:03:03.865Z,6.90
2022-09-06T01:03:13.852Z,6.50
2022-09-06T01:03:23.906Z,6.20
2022-09-06T01:03:33.951Z,6.80
2022-09-06T01:03:45.919Z,7.20
2022-09-06T01:03:53.924Z,7.30
2022-09-06T01:04:03.914Z,7.20
2022-09-06T01:04:13.967Z,7.30
2022-09-06T01:04:23.887Z,6.90
2022-09-06T01:04:33.866Z,6.90
2022-09-06T01:04:43.870Z,6.70
2022-09-06T01:04:53.965Z,7.10
2022-09-06T01:05:03.847Z,7.00
2022-09-06T01:05:13.937Z,7.00
2022-09-06T01:05:23.926Z,6.50
2022-09-06T01:05:33.904Z,6.40
2022-09-06T01:05:43.858Z,6.60
2022-09-06T01:05:54.673Z,7.00
2022-09-06T01:06:03.885Z,6.50
2022-09-06T01:06:13.882Z,6.50
2022-09-06T01:06:23.862Z,6.10
2022-09-06T01:06:33.874Z,6.80
2022-09-06T01:06:43.878Z,7.10
2022-09-06T01:06:53.926Z,7.10
2022-09-06T01:07:03.854Z,6.90
2022-09-06T01:07:13.925Z,6.60
2022-09-06T01:07:23.910Z,6.70
2022-09-06T01:07:33.963Z,6.60
2022-09-06T01:07:43.880Z,6.40
2022-09-06T01:07:53.877Z,6.50
2022-09-06T01:08:03.872Z,6.60
2022-09-06T01:08:13.886Z,7.10
2022-09-06T01:08:23.940Z,7.70
2022-09-06T01:08:33.961Z,7.30
2022-09-06T01:08:43.917Z,7.10
2022-09-06T01:08:53.875Z,6.40
2022-09-06T01:09:03.939Z,7.20
2022-09-06T01:09:13.976Z,7.40
2022-09-06T01:09:23.941Z,7.60
2022-09-06T01:09:33.938Z,7.60
2022-09-06T01:09:43.847Z,7.90
2022-09-06T01:09:53.928Z,7.70
2022-09-06T01:10:03.959Z,7.30
2022-09-06T01:10:13.878Z,6.50
2022-09-06T01:10:23.961Z,6.70
2022-09-06T01:10:33.911Z,6.70
2022-09-06T01:10:43.941Z,6.70
2022-09-06T01:10:53.901Z,6.70
2022-09-06T01:11:03.848Z,6.90
2022-09-06T01:11:13.867Z,7.10
2022-09-06T01:11:23.967Z,7.30
2022-09-06T01:11:33.851Z,6.90
2022-09-06T01:11:43.981Z,6.80
2022-09-06T01:11:53.921Z,6.60
2022-09-06T01:12:03.931Z,6.90
2022-09-06T01:12:13.970Z,7.10
2022-09-06T01:12:23.848Z,7.10
2022-09-06T01:12:33.856Z,7.00
2022-09-06T01:12:43.897Z,7.40
2022-09-06T01:12:53.957Z,7.40
2022-09-06T01:13:03.927Z,7.10
2022-09-06T01:13:13.867Z,6.40
2022-09-06T01:13:23.872Z,6.50
2022-09-06T01:13:33.966Z,6.90
2022-09-06T01:13:43.884Z,7.40
2022-09-06T01:13:53.971Z,7.50
2022-09-06T01:14:03.861Z,7.50
2022-09-06T01:14:13.844Z,7.40
2022-09-06T01:14:23.917Z,7.30
2022-09-06T01:14:33.885Z,7.10
2022-09-06T01:14:43.917Z,7.20
2022-09-06T01:14:53.907Z,6.60
2022-09-06T01:15:03.954Z,6.80
2022-09-06T01:15:13.909Z,6.30
2022-09-06T01:15:23.916Z,6.90
2022-09-06T01:15:33.973Z,7.10
2022-09-06T01:15:44.023Z,7.30
2022-09-06T01:15:54.013Z,7.00
2022-09-06T01:16:04.018Z,7.30
2022-09-06T01:16:14.070Z,7.50
2022-09-06T01:16:23.860Z,8.00
2022-09-06T01:16:33.925Z,7.00
2022-09-06T01:16:43.920Z,6.90
2022-09-06T01:16:53.879Z,6.20
2022-09-06T01:17:03.933Z,6.30
2022-09-06T01:17:13.879Z,6.20
2022-09-06T01:17:23.914Z,6.60
2022-09-06T01:17:33.957Z,6.90
2022-09-06T01:17:43.904Z,6.80
2022-09-06T01:17:53.900Z,7.10
2022-09-06T01:18:03.918Z,7.10
2022-09-06T01:18:13.908Z,7.20
2022-09-06T01:18:23.948Z,7.10
2022-09-06T01:18:33.883Z,6.90
2022-09-06T01:18:43.909Z,6.70
2022-09-06T01:18:53.952Z,6.30
2022-09-06T01:19:03.881Z,6.70
2022-09-06T01:19:13.919Z,6.70
2022-09-06T01:19:23.924Z,7.00
2022-09-06T01:19:33.861Z,6.60
2022-09-06T01:19:43.949Z,6.60
2022-09-06T01:19:53.945Z,6.70
2022-09-06T01:20:03.888Z,7.20
2022-09-06T01:20:13.846Z,7.70
2022-09-06T01:20:23.886Z,7.10
2022-09-06T01:20:33.855Z,6.90
2022-09-06T01:20:43.924Z,6.80
2022-09-06T01:20:53.939Z,7.00
2022-09-06T01:21:03.949Z,6.20
2022-09-06T01:21:13.899Z,6.10
2022-09-06T01:21:23.954Z,6.20
2022-09-06T01:21:33.940Z,6.70
2022-09-06T01:21:43.940Z,7.00
2022-09-06T01:21:53.959Z,6.90
2022-09-06T01:22:03.866Z,6.60
2022-09-06T01:22:13.983Z,6.30
2022-09-06T01:22:23.952Z,6.60
2022-09-06T01:22:33.959Z,7.00
2022-09-06T01:22:43.933Z,7.20
2022-09-06T01:22:53.884Z,7.10
2022-09-06T01:23:03.871Z,6.90
2022-09-06T01:23:13.968Z,7.00
2022-09-06T01:23:23.958Z,7.10
2022-09-06T01:23:33.968Z,7.00
2022-09-06T01:23:43.879Z,6.60
2022-09-06T01:23:53.938Z,6.20
2022-09-06T01:24:03.970Z,6.40
2022-09-06T01:24:13.928Z,6.80
2022-09-06T01:24:23.951Z,7.20
2022-09-06T01:24:33.899Z,7.60
2022-09-06T01:24:43.974Z,7.80
2022-09-06T01:24:53.964Z,7.60
2022-09-06T01:25:03.960Z,7.00
2022-09-06T01:25:13.857Z,6.20
2022-09-06T01:25:23.909Z,6.30
2022-09-06T01:25:33.963Z,6.40
2022-09-06T01:25:43.971Z,6.40
2022-09-06T01:25:58.827Z,6.30
2022-09-06T01:26:03.851Z,6.20
2022-09-06T01:26:13.941Z,6.70
2022-09-06T01:26:23.964Z,6.80
2022-09-06T01:26:33.965Z,6.80
2022-09-06T01:26:43.950Z,6.80
2022-09-06T01:26:53.890Z,6.50
2022-09-06T01:27:03.921Z,6.70
2022-09-06T01:27:13.953Z,6.70
2022-09-06T01:27:23.949Z,6.70
2022-09-06T01:27:33.862Z,6.70
2022-09-06T01:27:43.899Z,6.40
2022-09-06T01:27:53.914Z,6.60
2022-09-06T01:28:03.959Z,6.90
2022-09-06T01:28:13.846Z,6.90
2022-09-06T01:28:23.903Z,6.90
2022-09-06T01:28:33.918Z,6.80
2022-09-06T01:28:43.936Z,7.10
2022-09-06T01:28:53.950Z,7.00
2022-09-06T01:29:03.894Z,7.10
2022-09-06T01:29:13.882Z,6.80
2022-09-06T01:29:23.920Z,6.70
2022-09-06T01:29:33.878Z,6.40
2022-09-06T01:29:43.951Z,6.30
2022-09-06T01:29:53.851Z,6.70
2022-09-06T01:30:03.887Z,6.60
2022-09-06T01:30:13.864Z,7.00
2022-09-06T01:30:23.923Z,6.50
2022-09-06T01:30:34.035Z,6.30
2022-09-06T01:30:43.954Z,6.00
2022-09-06T01:30:53.966Z,6.20
2022-09-06T01:31:03.960Z,6.40
2022-09-06T01:31:14.035Z,6.10
2022-09-06T01:31:23.886Z,6.30
2022-09-06T01:31:36.013Z,6.10
2022-09-06T01:31:43.882Z,6.50
2022-09-06T01:31:53.914Z,6.40
2022-09-06T01:32:03.918Z,6.40
2022-09-06T01:32:13.859Z,6.70
2022-09-06T01:32:23.931Z,6.80
2022-09-06T01:32:33.860Z,7.20
2022-09-06T01:32:43.874Z,7.00
2022-09-06T01:32:53.852Z,7.10
2022-09-06T01:33:03.907Z,6.60
2022-09-06T01:33:13.965Z,6.40
2022-09-06T01:33:23.886Z,6.50
2022-09-06T01:33:33.966Z,6.70
2022-09-06T01:33:43.908Z,6.50
2022-09-06T01:33:53.891Z,6.40
2022-09-06T01:34:03.923Z,6.10
2022-09-06T01:34:13.946Z,6.10
2022-09-06T01:34:23.892Z,6.50
2022-09-06T01:34:33.863Z,6.90
2022-09-06T01:34:43.958Z,7.50
2022-09-06T01:34:53.889Z,7.60
2022-09-06T01:35:03.953Z,7.40
2022-09-06T01:35:13.885Z,7.30
2022-09-06T01:35:23.964Z,7.30
2022-09-06T01:35:33.856Z,7.00
2022-09-06T01:35:43.898Z,7.10
2022-09-06T01:35:53.899Z,6.60
2022-09-06T01:36:03.953Z,7.10
2022-09-06T01:36:13.938Z,6.90
2022-09-06T01:36:23.922Z,7.10
2022-09-06T01:36:33.862Z,6.70
2022-09-06T01:37:06.201Z,6.50
2022-09-06T01:37:09.514Z,6.40
2022-09-06T01:37:10.318Z,6.60
2022-09-06T01:37:13.853Z,6.80
2022-09-06T01:37:23.913Z,6.40
2022-09-06T01:37:33.900Z,6.80
2022-09-06T01:37:43.916Z,6.20
2022-09-06T01:37:53.968Z,6.50
2022-09-06T01:38:03.946Z,5.80
2022-09-06T01:38:13.882Z,6.60
2022-09-06T01:38:23.905Z,6.40
2022-09-06T01:38:33.870Z,6.30
2022-09-06T01:38:43.939Z,6.00
2022-09-06T01:38:53.891Z,6.00
2022-09-06T01:39:03.967Z,6.00
2022-09-06T01:39:13.885Z,6.10
2022-09-06T01:39:23.907Z,6.50
2022-09-06T01:39:34.033Z,7.00
2022-09-06T01:39:43.988Z,7.10
2022-09-06T01:39:53.950Z,6.90
2022-09-06T01:40:04.060Z,6.60
2022-09-06T01:40:13.962Z,6.70
2022-09-06T01:40:23.930Z,6.90
2022-09-06T01:40:33.903Z,6.90
2022-09-06T01:40:43.973Z,7.10
2022-09-06T01:40:53.972Z,7.10
2022-09-06T01:41:03.868Z,7.20
2022-09-06T01:41:13.953Z,6.90
2022-09-06T01:41:23.885Z,7.00
2022-09-06T01:41:33.877Z,6.90
2022-09-06T01:41:43.862Z,6.70
2022-09-06T01:41:53.885Z,6.30
2022-09-06T01:42:03.887Z,6.50
2022-09-06T01:42:13.970Z,6.70
2022-09-06T01:42:23.871Z,6.90
2022-09-06T01:42:33.908Z,6.90
2022-09-06T01:42:43.853Z,7.30
2022-09-06T01:42:53.942Z,7.20
2022-09-06T01:43:06.901Z,7.40
2022-09-06T01:43:13.925Z,6.70
2022-09-06T01:43:23.904Z,6.90
2022-09-06T01:43:33.908Z,6.70
2022-09-06T01:43:43.854Z,6.90
2022-09-06T01:43:53.855Z,6.80
2022-09-06T01:44:03.928Z,6.70
2022-09-06T01:44:13.857Z,6.50
2022-09-06T01:44:23.942Z,6.50
2022-09-06T01:44:33.909Z,6.20
2022-09-06T01:44:43.848Z,6.80
2022-09-06T01:44:53.919Z,6.80
2022-09-06T01:45:03.845Z,7.40
2022-09-06T01:45:13.978Z,7.20
2022-09-06T01:45:23.915Z,6.90
2022-09-06T01:45:33.858Z,6.50
2022-09-06T01:45:44.061Z,6.50
2022-09-06T01:45:53.925Z,6.70
2022-09-06T01:46:03.984Z,6.70
2022-09-06T01:46:13.962Z,6.90
2022-09-06T01:46:24.017Z,6.70
2022-09-06T01:46:34.027Z,6.70
2022-09-06T01:46:43.951Z,6.70
2022-09-06T01:46:53.854Z,6.90
2022-09-06T01:47:03.929Z,7.20
2022-09-06T01:47:13.868Z,7.40
2022-09-06T01:47:23.864Z,7.10
2022-09-06T01:47:33.858Z,6.60
2022-09-06T01:47:43.849Z,6.40
2022-09-06T01:47:53.968Z,6.40
2022-09-06T01:48:03.959Z,6.30
2022-09-06T01:48:13.964Z,6.00
2022-09-06T01:48:23.917Z,6.40
2022-09-06T01:48:38.397Z,6.90
2022-09-06T01:48:43.855Z,7.00
2022-09-06T01:48:53.908Z,7.00
2022-09-06T01:49:03.949Z,7.00
2022-09-06T01:49:13.940Z,7.10
2022-09-06T01:49:23.896Z,6.80
2022-09-06T01:49:33.956Z,7.10
2022-09-06T01:49:43.956Z,7.00
2022-09-06T01:49:53.967Z,7.00
2022-09-06T01:50:03.927Z,6.80
2022-09-06T01:50:13.901Z,6.80
2022-09-06T01:50:23.942Z,7.10
2022-09-06T01:50:33.899Z,6.60
2022-09-06T01:50:43.947Z,6.80
2022-09-06T01:50:53.972Z,6.40
2022-09-06T01:51:03.924Z,6.90
2022-09-06T01:51:13.874Z,6.90
2022-09-06T01:51:23.915Z,7.10
2022-09-06T01:51:33.964Z,7.00
2022-09-06T01:51:43.936Z,7.00
2022-09-06T01:51:53.857Z,6.80
2022-09-06T01:52:03.942Z,6.90
2022-09-06T01:52:13.957Z,6.60
2022-09-06T01:52:23.910Z,6.80
2022-09-06T01:52:33.961Z,6.70
2022-09-06T01:52:43.969Z,6.80
2022-09-06T01:52:53.856Z,7.10
2022-09-06T01:53:03.929Z,7.00
2022-09-06T01:53:13.886Z,6.90
2022-09-06T01:53:23.964Z,7.00
2022-09-06T01:53:33.848Z,7.60
2022-09-06T01:53:43.856Z,7.60
2022-09-06T01:53:53.909Z,7.10
2022-09-06T01:54:03.925Z,6.30
2022-09-06T01:54:13.892Z,6.50
2022-09-06T01:54:23.941Z,6.50
2022-09-06T01:54:33.866Z,6.60
2022-09-06T01:54:43.877Z,6.60
2022-09-06T01:54:53.967Z,6.80
2022-09-06T01:55:03.957Z,6.70
2022-09-06T01:55:13.906Z,6.60
2022-09-06T01:55:23.860Z,6.40
2022-09-06T01:55:33.952Z,6.50
2022-09-06T01:55:43.941Z,6.40
2022-09-06T01:55:53.871Z,6.40
2022-09-06T01:56:03.930Z,6.70
2022-09-06T01:56:13.908Z,6.70
2022-09-06T01:56:23.968Z,6.90
2022-09-06T01:56:33.893Z,6.60
2022-09-06T01:56:43.857Z,6.40
2022-09-06T01:56:53.883Z,6.20
2022-09-06T01:57:03.952Z,6.30
2022-09-06T01:57:13.856Z,6.40
2022-09-06T01:57:23.966Z,6.20
2022-09-06T01:57:33.852Z,6.60
2022-09-06T01:57:43.932Z,6.70
2022-09-06T01:57:53.927Z,6.90
2022-09-06T01:58:03.891Z,6.60
2022-09-06T01:58:13.926Z,6.70
2022-09-06T01:58:24.053Z,6.80
2022-09-06T01:58:33.946Z,6.70
2022-09-06T01:58:43.853Z,6.60
2022-09-06T01:58:53.957Z,6.70
2022-09-06T01:59:03.944Z,6.80
2022-09-06T01:59:13.927Z,6.90
2022-09-06T01:59:23.980Z,6.50
2022-09-06T01:59:33.956Z,6.60
2022-09-06T01:59:43.850Z,6.80
2022-09-06T01:59:53.876Z,7.00
2022-09-06T02:00:03.853Z,6.60
2022-09-06T02:00:13.940Z,6.50
2022-09-06T02:00:23.869Z,6.20
2022-09-06T02:00:33.854Z,6.50
2022-09-06T02:00:43.903Z,6.70
2022-09-06T02:00:53.923Z,6.30
2022-09-06T02:01:04.013Z,6.20
2022-09-06T02:01:13.974Z,6.00
2022-09-06T02:01:23.914Z,7.00
2022-09-06T02:01:33.989Z,6.80
2022-09-06T02:01:43.964Z,6.70
2022-09-06T02:01:54.005Z,6.40
2022-09-06T02:02:04.102Z,6.60
2022-09-06T02:02:13.947Z,6.50
2022-09-06T02:02:23.945Z,6.70
2022-09-06T02:02:34.059Z,6.80
2022-09-06T02:02:44.037Z,7.00
2022-09-06T02:02:53.968Z,6.60
2022-09-06T02:03:03.857Z,6.60
2022-09-06T02:03:13.879Z,6.40
2022-09-06T02:03:23.882Z,6.10
2022-09-06T02:03:33.875Z,6.30
2022-09-06T02:03:43.933Z,6.50
2022-09-06T02:03:53.854Z,6.90
2022-09-06T02:04:03.899Z,6.60
2022-09-06T02:04:13.971Z,6.50
2022-09-06T02:04:23.858Z,6.60
2022-09-06T02:04:33.903Z,6.70
2022-09-06T02:04:43.942Z,6.80
2022-09-06T02:04:53.956Z,6.70
2022-09-06T02:05:03.919Z,6.40
2022-09-06T02:05:13.972Z,6.00
2022-09-06T02:05:23.904Z,6.00
2022-09-06T02:05:33.869Z,6.40
2022-09-06T02:05:43.870Z,6.90
2022-09-06T02:05:53.901Z,7.10
2022-09-06T02:06:03.967Z,6.70
2022-09-06T02:06:13.851Z,6.80
2022-09-06T02:06:23.917Z,7.00
2022-09-06T02:06:33.899Z,7.10
2022-09-06T02:06:43.953Z,6.70
2022-09-06T02:06:53.951Z,5.90
2022-09-06T02:07:03.901Z,5.90
2022-09-06T02:07:13.938Z,6.10
2022-09-06T02:07:23.996Z,6.70
2022-09-06T02:07:33.871Z,6.80
2022-09-06T02:07:43.921Z,6.20
2022-09-06T02:07:53.911Z,6.40
2022-09-06T02:08:03.930Z,6.40
2022-09-06T02:08:13.874Z,6.50
2022-09-06T02:08:23.937Z,6.40
2022-09-06T02:08:33.851Z,6.10
2022-09-06T02:08:43.850Z,6.70
2022-09-06T02:08:53.942Z,6.60
2022-09-06T02:09:03.940Z,6.70
2022-09-06T02:09:13.857Z,6.60
2022-09-06T02:09:23.891Z,6.60
2022-09-06T02:09:33.958Z,6.70
2022-09-06T02:09:43.956Z,6.40
2022-09-06T02:09:53.893Z,6.20
2022-09-06T02:10:03.878Z,6.40
2022-09-06T02:10:13.968Z,6.50
2022-09-06T02:10:23.929Z,6.50
2022-09-06T02:10:33.869Z,6.30
2022-09-06T02:10:43.898Z,6.10
2022-09-06T02:10:53.849Z,6.20
2022-09-06T02:11:03.930Z,6.00
2022-09-06T02:11:13.877Z,5.90
2022-09-06T02:11:23.919Z,6.00
2022-09-06T02:11:33.975Z,6.30
2022-09-06T02:11:43.879Z,6.40
2022-09-06T02:11:53.878Z,6.30
2022-09-06T02:12:03.903Z,6.10
2022-09-06T02:12:13.939Z,6.40
2022-09-06T02:12:23.911Z,6.80
2022-09-06T02:12:33.950Z,7.60
2022-09-06T02:12:43.943Z,7.40
2022-09-06T02:12:53.864Z,6.80
2022-09-06T02:13:03.891Z,6.60